Аэропорт: Курск-Восточный . Курск

ICAO: UUOK

METAR:
2019/05/24 20:00
UUOK 242000Z 10003MPS 030V130 9999 SCT025 17/13 Q1011 R12/CLRD65 NOSIG RMK QFE740/0987
METAR:
Информация по данной станции не доступна